sensor_id;sensor_type;location;lat;lon;timestamp;temperature;humidity
12481;DHT22;6305;48.398;11.762;2023-06-10T00:00:47;14.50;99.90
12481;DHT22;6305;48.398;11.762;2023-06-10T00:03:15;14.50;99.90
12481;DHT22;6305;48.398;11.762;2023-06-10T00:05:43;14.50;99.90
12481;DHT22;6305;48.398;11.762;2023-06-10T00:08:10;14.50;99.90
12481;DHT22;6305;48.398;11.762;2023-06-10T00:10:38;14.50;99.90
12481;DHT22;6305;48.398;11.762;2023-06-10T00:13:05;14.40;99.90
12481;DHT22;6305;48.398;11.762;2023-06-10T00:15:34;14.40;99.90
12481;DHT22;6305;48.398;11.762;2023-06-10T00:18:01;14.40;99.90
12481;DHT22;6305;48.398;11.762;2023-06-10T00:20:31;14.40;99.90
12481;DHT22;6305;48.398;11.762;2023-06-10T00:22:58;14.40;99.90
12481;DHT22;6305;48.398;11.762;2023-06-10T00:25:27;14.30;99.90
12481;DHT22;6305;48.398;11.762;2023-06-10T00:27:53;14.40;99.90
12481;DHT22;6305;48.398;11.762;2023-06-10T00:30:20;14.30;99.90
12481;DHT22;6305;48.398;11.762;2023-06-10T00:32:48;14.30;99.90
12481;DHT22;6305;48.398;11.762;2023-06-10T00:35:15;14.30;99.90
12481;DHT22;6305;48.398;11.762;2023-06-10T00:37:43;14.30;99.90
12481;DHT22;6305;48.398;11.762;2023-06-10T00:40:11;14.30;99.90
12481;DHT22;6305;48.398;11.762;2023-06-10T00:42:38;14.30;99.90
12481;DHT22;6305;48.398;11.762;2023-06-10T00:45:06;14.30;99.90
12481;DHT22;6305;48.398;11.762;2023-06-10T00:47:35;14.20;99.90
12481;DHT22;6305;48.398;11.762;2023-06-10T00:50:03;14.20;99.90
12481;DHT22;6305;48.398;11.762;2023-06-10T00:52:31;14.20;99.90
12481;DHT22;6305;48.398;11.762;2023-06-10T00:54:59;14.20;99.90
12481;DHT22;6305;48.398;11.762;2023-06-10T00:57:27;14.20;99.90
12481;DHT22;6305;48.398;11.762;2023-06-10T00:59:56;14.10;99.90
12481;DHT22;6305;48.398;11.762;2023-06-10T01:02:24;14.10;99.90
12481;DHT22;6305;48.398;11.762;2023-06-10T01:04:50;14.00;99.90
12481;DHT22;6305;48.398;11.762;2023-06-10T01:07:24;14.00;99.90
12481;DHT22;6305;48.398;11.762;2023-06-10T01:09:55;14.00;99.90
12481;DHT22;6305;48.398;11.762;2023-06-10T01:12:31;14.00;99.90
12481;DHT22;6305;48.398;11.762;2023-06-10T01:15:00;13.90;99.90
12481;DHT22;6305;48.398;11.762;2023-06-10T01:17:30;13.90;99.90
12481;DHT22;6305;48.398;11.762;2023-06-10T01:19:57;13.80;99.90
12481;DHT22;6305;48.398;11.762;2023-06-10T01:22:27;13.80;99.90
12481;DHT22;6305;48.398;11.762;2023-06-10T01:24:58;13.70;99.90
12481;DHT22;6305;48.398;11.762;2023-06-10T01:27:29;13.70;99.90
12481;DHT22;6305;48.398;11.762;2023-06-10T01:30:01;13.70;99.90
12481;DHT22;6305;48.398;11.762;2023-06-10T01:32:34;13.70;99.90
12481;DHT22;6305;48.398;11.762;2023-06-10T01:35:05;13.70;99.90
12481;DHT22;6305;48.398;11.762;2023-06-10T01:37:38;13.70;99.90
12481;DHT22;6305;48.398;11.762;2023-06-10T01:40:07;13.60;99.90
12481;DHT22;6305;48.398;11.762;2023-06-10T01:42:35;13.50;99.90
12481;DHT22;6305;48.398;11.762;2023-06-10T01:45:02;13.50;99.90
12481;DHT22;6305;48.398;11.762;2023-06-10T01:47:29;13.50;99.90
12481;DHT22;6305;48.398;11.762;2023-06-10T01:49:56;13.40;99.90
12481;DHT22;6305;48.398;11.762;2023-06-10T01:52:24;13.40;99.90
12481;DHT22;6305;48.398;11.762;2023-06-10T01:54:53;13.40;99.90
12481;DHT22;6305;48.398;11.762;2023-06-10T01:57:20;13.40;99.90
12481;DHT22;6305;48.398;11.762;2023-06-10T01:59:47;13.40;99.90
12481;DHT22;6305;48.398;11.762;2023-06-10T02:02:14;13.40;99.90
12481;DHT22;6305;48.398;11.762;2023-06-10T02:04:41;13.40;99.90
12481;DHT22;6305;48.398;11.762;2023-06-10T02:07:08;13.40;99.90
12481;DHT22;6305;48.398;11.762;2023-06-10T02:09:35;13.30;99.90
12481;DHT22;6305;48.398;11.762;2023-06-10T02:12:04;13.30;99.90
12481;DHT22;6305;48.398;11.762;2023-06-10T02:14:33;13.30;99.90
12481;DHT22;6305;48.398;11.762;2023-06-10T02:17:01;13.30;99.90
12481;DHT22;6305;48.398;11.762;2023-06-10T02:19:28;13.30;99.90
12481;DHT22;6305;48.398;11.762;2023-06-10T02:21:56;13.30;99.90
12481;DHT22;6305;48.398;11.762;2023-06-10T02:24:23;13.30;99.90
12481;DHT22;6305;48.398;11.762;2023-06-10T02:26:50;13.20;99.90
12481;DHT22;6305;48.398;11.762;2023-06-10T02:29:18;13.30;99.90
12481;DHT22;6305;48.398;11.762;2023-06-10T02:31:45;13.30;99.90
12481;DHT22;6305;48.398;11.762;2023-06-10T02:34:13;13.30;99.90
12481;DHT22;6305;48.398;11.762;2023-06-10T02:36:41;13.30;99.90
12481;DHT22;6305;48.398;11.762;2023-06-10T02:39:08;13.30;99.90
12481;DHT22;6305;48.398;11.762;2023-06-10T02:41:35;13.30;99.90
12481;DHT22;6305;48.398;11.762;2023-06-10T02:44:03;13.20;99.90
12481;DHT22;6305;48.398;11.762;2023-06-10T02:46:32;13.20;99.90
12481;DHT22;6305;48.398;11.762;2023-06-10T02:48:59;13.20;99.90
12481;DHT22;6305;48.398;11.762;2023-06-10T02:51:27;13.20;99.90
12481;DHT22;6305;48.398;11.762;2023-06-10T02:53:59;13.10;99.90
12481;DHT22;6305;48.398;11.762;2023-06-10T02:56:26;13.10;99.90
12481;DHT22;6305;48.398;11.762;2023-06-10T02:58:55;13.10;99.90
12481;DHT22;6305;48.398;11.762;2023-06-10T03:01:23;13.10;99.90
12481;DHT22;6305;48.398;11.762;2023-06-10T03:04:01;13.20;99.90
12481;DHT22;6305;48.398;11.762;2023-06-10T03:06:28;13.20;99.90
12481;DHT22;6305;48.398;11.762;2023-06-10T03:09:05;13.10;99.90
12481;DHT22;6305;48.398;11.762;2023-06-10T03:11:33;13.20;99.90
12481;DHT22;6305;48.398;11.762;2023-06-10T03:13:59;13.20;99.90
12481;DHT22;6305;48.398;11.762;2023-06-10T03:16:29;13.20;99.90
12481;DHT22;6305;48.398;11.762;2023-06-10T03:18:57;13.20;99.90
12481;DHT22;6305;48.398;11.762;2023-06-10T03:21:26;13.20;99.90
12481;DHT22;6305;48.398;11.762;2023-06-10T03:23:55;13.20;99.90
12481;DHT22;6305;48.398;11.762;2023-06-10T03:26:22;13.20;99.90
12481;DHT22;6305;48.398;11.762;2023-06-10T03:28:50;13.20;99.90
12481;DHT22;6305;48.398;11.762;2023-06-10T03:31:18;13.30;99.90
12481;DHT22;6305;48.398;11.762;2023-06-10T03:33:45;13.20;99.90
12481;DHT22;6305;48.398;11.762;2023-06-10T03:36:12;13.30;99.90
12481;DHT22;6305;48.398;11.762;2023-06-10T03:38:40;13.30;99.90
12481;DHT22;6305;48.398;11.762;2023-06-10T03:41:08;13.30;99.90
12481;DHT22;6305;48.398;11.762;2023-06-10T03:43:40;13.30;99.90
12481;DHT22;6305;48.398;11.762;2023-06-10T03:46:07;13.30;99.90
12481;DHT22;6305;48.398;11.762;2023-06-10T03:48:34;13.40;99.90
12481;DHT22;6305;48.398;11.762;2023-06-10T03:51:00;13.40;99.90
12481;DHT22;6305;48.398;11.762;2023-06-10T03:53:28;13.50;99.90
12481;DHT22;6305;48.398;11.762;2023-06-10T03:55:56;13.50;99.90
12481;DHT22;6305;48.398;11.762;2023-06-10T03:58:25;13.60;99.90
12481;DHT22;6305;48.398;11.762;2023-06-10T04:00:52;13.60;99.90
12481;DHT22;6305;48.398;11.762;2023-06-10T04:03:28;13.60;99.90
12481;DHT22;6305;48.398;11.762;2023-06-10T04:05:55;13.60;99.90
12481;DHT22;6305;48.398;11.762;2023-06-10T04:08:25;13.70;99.90
12481;DHT22;6305;48.398;11.762;2023-06-10T04:10:52;13.80;99.90
12481;DHT22;6305;48.398;11.762;2023-06-10T04:13:21;13.90;99.90
12481;DHT22;6305;48.398;11.762;2023-06-10T04:15:53;14.00;99.90
12481;DHT22;6305;48.398;11.762;2023-06-10T04:18:20;14.10;99.90
12481;DHT22;6305;48.398;11.762;2023-06-10T04:20:47;14.30;99.90
12481;DHT22;6305;48.398;11.762;2023-06-10T04:23:14;14.50;99.90
12481;DHT22;6305;48.398;11.762;2023-06-10T04:25:44;14.70;99.90
12481;DHT22;6305;48.398;11.762;2023-06-10T04:28:11;15.00;99.90
12481;DHT22;6305;48.398;11.762;2023-06-10T04:30:40;15.20;99.90
12481;DHT22;6305;48.398;11.762;2023-06-10T04:33:07;15.50;99.90
12481;DHT22;6305;48.398;11.762;2023-06-10T04:35:36;15.70;99.90
12481;DHT22;6305;48.398;11.762;2023-06-10T04:38:06;15.90;99.90
12481;DHT22;6305;48.398;11.762;2023-06-10T04:40:33;16.10;99.90
12481;DHT22;6305;48.398;11.762;2023-06-10T04:43:00;16.40;99.90
12481;DHT22;6305;48.398;11.762;2023-06-10T04:45:27;16.70;99.90
12481;DHT22;6305;48.398;11.762;2023-06-10T04:47:56;16.90;99.90
12481;DHT22;6305;48.398;11.762;2023-06-10T04:50:24;17.10;99.90
12481;DHT22;6305;48.398;11.762;2023-06-10T04:52:51;17.40;99.90
12481;DHT22;6305;48.398;11.762;2023-06-10T04:55:18;17.60;99.90
12481;DHT22;6305;48.398;11.762;2023-06-10T04:57:46;17.80;99.90
12481;DHT22;6305;48.398;11.762;2023-06-10T05:00:14;18.00;99.90
12481;DHT22;6305;48.398;11.762;2023-06-10T05:02:41;18.20;99.90
12481;DHT22;6305;48.398;11.762;2023-06-10T05:05:09;18.40;99.90
12481;DHT22;6305;48.398;11.762;2023-06-10T05:07:36;18.60;99.90
12481;DHT22;6305;48.398;11.762;2023-06-10T05:10:04;18.50;99.90
12481;DHT22;6305;48.398;11.762;2023-06-10T05:12:31;18.30;99.90
12481;DHT22;6305;48.398;11.762;2023-06-10T05:14:57;18.10;99.90
12481;DHT22;6305;48.398;11.762;2023-06-10T05:17:24;18.20;99.90
12481;DHT22;6305;48.398;11.762;2023-06-10T05:19:51;18.20;99.90
12481;DHT22;6305;48.398;11.762;2023-06-10T05:22:20;18.30;99.90
12481;DHT22;6305;48.398;11.762;2023-06-10T05:24:48;18.30;99.90
12481;DHT22;6305;48.398;11.762;2023-06-10T05:27:14;18.30;99.90
12481;DHT22;6305;48.398;11.762;2023-06-10T05:29:41;18.60;99.90
12481;DHT22;6305;48.398;11.762;2023-06-10T05:32:08;19.00;99.90
12481;DHT22;6305;48.398;11.762;2023-06-10T05:34:35;19.20;99.90
12481;DHT22;6305;48.398;11.762;2023-06-10T05:37:03;19.20;99.90
12481;DHT22;6305;48.398;11.762;2023-06-10T05:39:32;19.10;99.90
12481;DHT22;6305;48.398;11.762;2023-06-10T05:41:58;18.80;99.90
12481;DHT22;6305;48.398;11.762;2023-06-10T05:44:27;18.60;99.90
12481;DHT22;6305;48.398;11.762;2023-06-10T05:46:54;18.40;99.90
12481;DHT22;6305;48.398;11.762;2023-06-10T05:49:21;18.30;99.90
12481;DHT22;6305;48.398;11.762;2023-06-10T05:51:48;18.40;99.90
12481;DHT22;6305;48.398;11.762;2023-06-10T05:54:15;18.60;99.90
12481;DHT22;6305;48.398;11.762;2023-06-10T05:56:43;19.00;99.90
12481;DHT22;6305;48.398;11.762;2023-06-10T05:59:10;19.60;99.90
12481;DHT22;6305;48.398;11.762;2023-06-10T06:01:37;20.40;99.90
12481;DHT22;6305;48.398;11.762;2023-06-10T06:04:04;21.30;99.90
12481;DHT22;6305;48.398;11.762;2023-06-10T06:06:31;22.20;99.90
12481;DHT22;6305;48.398;11.762;2023-06-10T06:08:58;22.90;99.90
12481;DHT22;6305;48.398;11.762;2023-06-10T06:11:25;23.80;99.90
12481;DHT22;6305;48.398;11.762;2023-06-10T06:13:54;24.60;95.60
12481;DHT22;6305;48.398;11.762;2023-06-10T06:16:21;25.30;90.50
12481;DHT22;6305;48.398;11.762;2023-06-10T06:18:48;26.10;82.60
12481;DHT22;6305;48.398;11.762;2023-06-10T06:21:15;27.00;74.70
12481;DHT22;6305;48.398;11.762;2023-06-10T06:23:42;27.80;67.20
12481;DHT22;6305;48.398;11.762;2023-06-10T06:26:09;28.20;62.50
12481;DHT22;6305;48.398;11.762;2023-06-10T06:28:36;28.80;60.10
12481;DHT22;6305;48.398;11.762;2023-06-10T06:31:04;29.90;57.80
12481;DHT22;6305;48.398;11.762;2023-06-10T06:33:31;30.60;54.70
12481;DHT22;6305;48.398;11.762;2023-06-10T06:35:58;31.40;52.60
12481;DHT22;6305;48.398;11.762;2023-06-10T06:38:25;32.00;50.70
12481;DHT22;6305;48.398;11.762;2023-06-10T06:40:52;33.00;49.60
12481;DHT22;6305;48.398;11.762;2023-06-10T06:43:19;34.20;47.10
12481;DHT22;6305;48.398;11.762;2023-06-10T06:46:21;34.90;45.40
12481;DHT22;6305;48.398;11.762;2023-06-10T06:48:48;35.70;43.90
12481;DHT22;6305;48.398;11.762;2023-06-10T06:51:15;36.70;42.10
12481;DHT22;6305;48.398;11.762;2023-06-10T06:53:42;36.20;40.20
12481;DHT22;6305;48.398;11.762;2023-06-10T06:56:10;35.30;41.40
12481;DHT22;6305;48.398;11.762;2023-06-10T06:58:37;36.00;42.20
12481;DHT22;6305;48.398;11.762;2023-06-10T07:01:06;37.40;40.10
12481;DHT22;6305;48.398;11.762;2023-06-10T07:03:35;37.60;38.70
12481;DHT22;6305;48.398;11.762;2023-06-10T07:06:02;36.90;39.40
12481;DHT22;6305;48.398;11.762;2023-06-10T07:08:29;37.30;39.80
12481;DHT22;6305;48.398;11.762;2023-06-10T07:10:56;38.40;38.10
12481;DHT22;6305;48.398;11.762;2023-06-10T07:13:23;38.60;37.10
12481;DHT22;6305;48.398;11.762;2023-06-10T07:15:50;38.90;37.50
12481;DHT22;6305;48.398;11.762;2023-06-10T07:18:17;39.40;36.10
12481;DHT22;6305;48.398;11.762;2023-06-10T07:20:47;38.70;35.70
12481;DHT22;6305;48.398;11.762;2023-06-10T07:23:14;37.60;36.80
12481;DHT22;6305;48.398;11.762;2023-06-10T07:25:41;38.10;37.40
12481;DHT22;6305;48.398;11.762;2023-06-10T07:28:08;38.80;37.10
12481;DHT22;6305;48.398;11.762;2023-06-10T07:30:35;39.90;36.10
12481;DHT22;6305;48.398;11.762;2023-06-10T07:33:02;39.60;34.80
12481;DHT22;6305;48.398;11.762;2023-06-10T07:35:30;39.70;35.10
12481;DHT22;6305;48.398;11.762;2023-06-10T07:37:58;40.10;34.70
12481;DHT22;6305;48.398;11.762;2023-06-10T07:40:25;39.80;34.90
12481;DHT22;6305;48.398;11.762;2023-06-10T07:42:52;39.90;35.00
12481;DHT22;6305;48.398;11.762;2023-06-10T07:45:19;41.00;34.30
12481;DHT22;6305;48.398;11.762;2023-06-10T07:47:46;41.80;32.60
12481;DHT22;6305;48.398;11.762;2023-06-10T07:50:13;41.90;31.70
12481;DHT22;6305;48.398;11.762;2023-06-10T07:52:40;39.60;32.50
12481;DHT22;6305;48.398;11.762;2023-06-10T07:55:08;38.50;35.50
12481;DHT22;6305;48.398;11.762;2023-06-10T07:57:36;38.60;35.20
12481;DHT22;6305;48.398;11.762;2023-06-10T08:00:05;38.40;35.50
12481;DHT22;6305;48.398;11.762;2023-06-10T08:02:38;38.90;35.00
12481;DHT22;6305;48.398;11.762;2023-06-10T08:05:06;38.50;35.50
12481;DHT22;6305;48.398;11.762;2023-06-10T08:07:33;39.40;35.30
12481;DHT22;6305;48.398;11.762;2023-06-10T08:10:00;38.90;35.80
12481;DHT22;6305;48.398;11.762;2023-06-10T08:12:29;39.80;34.70
12481;DHT22;6305;48.398;11.762;2023-06-10T08:14:56;40.90;33.90
12481;DHT22;6305;48.398;11.762;2023-06-10T08:17:23;41.60;32.50
12481;DHT22;6305;48.398;11.762;2023-06-10T08:19:50;41.00;30.80
12481;DHT22;6305;48.398;11.762;2023-06-10T08:22:17;38.80;33.60
12481;DHT22;6305;48.398;11.762;2023-06-10T08:24:45;36.70;35.70
12481;DHT22;6305;48.398;11.762;2023-06-10T08:27:12;35.60;37.80
12481;DHT22;6305;48.398;11.762;2023-06-10T08:29:40;34.50;38.70
12481;DHT22;6305;48.398;11.762;2023-06-10T08:32:07;34.60;41.40
12481;DHT22;6305;48.398;11.762;2023-06-10T08:34:34;36.90;39.50
12481;DHT22;6305;48.398;11.762;2023-06-10T08:37:02;39.40;36.40
12481;DHT22;6305;48.398;11.762;2023-06-10T08:39:29;41.50;33.40
12481;DHT22;6305;48.398;11.762;2023-06-10T08:42:04;39.70;32.30
12481;DHT22;6305;48.398;11.762;2023-06-10T08:44:37;37.00;34.20
12481;DHT22;6305;48.398;11.762;2023-06-10T08:47:13;35.30;38.60
12481;DHT22;6305;48.398;11.762;2023-06-10T08:49:43;36.60;38.20
12481;DHT22;6305;48.398;11.762;2023-06-10T08:52:14;35.60;38.20
12481;DHT22;6305;48.398;11.762;2023-06-10T08:54:45;34.20;39.30
12481;DHT22;6305;48.398;11.762;2023-06-10T08:57:15;33.10;40.20
12481;DHT22;6305;48.398;11.762;2023-06-10T08:59:46;32.30;42.20
12481;DHT22;6305;48.398;11.762;2023-06-10T09:02:15;31.80;43.50
12481;DHT22;6305;48.398;11.762;2023-06-10T09:04:46;31.50;44.10
12481;DHT22;6305;48.398;11.762;2023-06-10T09:07:13;31.30;44.50
12481;DHT22;6305;48.398;11.762;2023-06-10T09:09:42;31.30;45.00
12481;DHT22;6305;48.398;11.762;2023-06-10T09:12:10;31.30;45.10
12481;DHT22;6305;48.398;11.762;2023-06-10T09:14:37;31.50;45.00
12481;DHT22;6305;48.398;11.762;2023-06-10T09:17:05;31.60;44.80
12481;DHT22;6305;48.398;11.762;2023-06-10T09:19:35;32.20;44.70
12481;DHT22;6305;48.398;11.762;2023-06-10T09:22:03;32.90;43.40
12481;DHT22;6305;48.398;11.762;2023-06-10T09:24:31;34.20;43.20
12481;DHT22;6305;48.398;11.762;2023-06-10T09:27:03;37.00;40.20
12481;DHT22;6305;48.398;11.762;2023-06-10T09:29:30;39.40;36.20
12481;DHT22;6305;48.398;11.762;2023-06-10T09:31:57;39.90;34.50
12481;DHT22;6305;48.398;11.762;2023-06-10T09:34:26;40.80;32.70
12481;DHT22;6305;48.398;11.762;2023-06-10T09:36:54;39.90;32.00
12481;DHT22;6305;48.398;11.762;2023-06-10T09:39:21;39.90;33.70
12481;DHT22;6305;48.398;11.762;2023-06-10T09:41:48;39.20;33.20
12481;DHT22;6305;48.398;11.762;2023-06-10T09:44:16;38.10;33.70
12481;DHT22;6305;48.398;11.762;2023-06-10T09:46:45;36.60;35.20
12481;DHT22;6305;48.398;11.762;2023-06-10T09:49:12;35.60;36.70
12481;DHT22;6305;48.398;11.762;2023-06-10T09:51:49;34.60;38.10
12481;DHT22;6305;48.398;11.762;2023-06-10T09:54:18;34.00;39.60
12481;DHT22;6305;48.398;11.762;2023-06-10T09:56:47;34.10;40.20
12481;DHT22;6305;48.398;11.762;2023-06-10T09:59:14;34.10;40.10
12481;DHT22;6305;48.398;11.762;2023-06-10T10:01:41;34.00;40.60
12481;DHT22;6305;48.398;11.762;2023-06-10T10:04:08;34.00;39.30
12481;DHT22;6305;48.398;11.762;2023-06-10T10:06:36;33.60;39.50
12481;DHT22;6305;48.398;11.762;2023-06-10T10:09:04;33.60;40.20
12481;DHT22;6305;48.398;11.762;2023-06-10T10:11:32;33.50;39.80
12481;DHT22;6305;48.398;11.762;2023-06-10T10:14:04;33.60;40.30
12481;DHT22;6305;48.398;11.762;2023-06-10T10:16:36;33.80;39.20
12481;DHT22;6305;48.398;11.762;2023-06-10T10:19:08;33.00;39.90
12481;DHT22;6305;48.398;11.762;2023-06-10T10:21:40;33.00;41.10
12481;DHT22;6305;48.398;11.762;2023-06-10T10:24:14;33.10;41.40
12481;DHT22;6305;48.398;11.762;2023-06-10T10:26:46;33.60;41.10
12481;DHT22;6305;48.398;11.762;2023-06-10T10:29:22;34.30;40.40
12481;DHT22;6305;48.398;11.762;2023-06-10T10:31:51;34.70;39.40
12481;DHT22;6305;48.398;11.762;2023-06-10T10:34:23;36.40;38.80
12481;DHT22;6305;48.398;11.762;2023-06-10T10:36:51;37.20;36.10
12481;DHT22;6305;48.398;11.762;2023-06-10T10:39:19;37.10;35.40
12481;DHT22;6305;48.398;11.762;2023-06-10T10:41:49;37.30;35.50
12481;DHT22;6305;48.398;11.762;2023-06-10T10:44:17;37.60;35.20
12481;DHT22;6305;48.398;11.762;2023-06-10T10:46:49;37.20;35.50
12481;DHT22;6305;48.398;11.762;2023-06-10T10:49:17;36.80;36.10
12481;DHT22;6305;48.398;11.762;2023-06-10T10:52:03;36.30;37.00
12481;DHT22;6305;48.398;11.762;2023-06-10T10:54:32;35.90;37.40
12481;DHT22;6305;48.398;11.762;2023-06-10T10:57:14;35.80;37.60
12481;DHT22;6305;48.398;11.762;2023-06-10T10:59:57;35.70;37.30
12481;DHT22;6305;48.398;11.762;2023-06-10T11:02:33;35.20;37.70
12481;DHT22;6305;48.398;11.762;2023-06-10T11:05:01;34.80;38.70
12481;DHT22;6305;48.398;11.762;2023-06-10T11:07:30;34.40;39.20
12481;DHT22;6305;48.398;11.762;2023-06-10T11:09:58;34.30;39.80
12481;DHT22;6305;48.398;11.762;2023-06-10T11:12:47;33.90;39.90
12481;DHT22;6305;48.398;11.762;2023-06-10T11:15:18;33.80;41.00
12481;DHT22;6305;48.398;11.762;2023-06-10T11:18:09;33.90;41.00
12481;DHT22;6305;48.398;11.762;2023-06-10T11:20:52;34.00;40.60
12481;DHT22;6305;48.398;11.762;2023-06-10T11:23:34;34.30;40.40
12481;DHT22;6305;48.398;11.762;2023-06-10T11:26:15;34.10;40.40
12481;DHT22;6305;48.398;11.762;2023-06-10T11:29:05;33.60;40.90
12481;DHT22;6305;48.398;11.762;2023-06-10T11:31:38;33.40;40.70
12481;DHT22;6305;48.398;11.762;2023-06-10T11:34:06;33.10;41.40
12481;DHT22;6305;48.398;11.762;2023-06-10T11:36:36;33.60;41.10
12481;DHT22;6305;48.398;11.762;2023-06-10T11:39:06;35.20;39.20
12481;DHT22;6305;48.398;11.762;2023-06-10T11:41:34;36.20;37.90
12481;DHT22;6305;48.398;11.762;2023-06-10T11:44:04;36.20;37.00
12481;DHT22;6305;48.398;11.762;2023-06-10T11:46:31;35.90;37.50
12481;DHT22;6305;48.398;11.762;2023-06-10T11:48:59;35.40;37.30
12481;DHT22;6305;48.398;11.762;2023-06-10T11:51:29;34.70;38.20
12481;DHT22;6305;48.398;11.762;2023-06-10T11:53:56;34.30;40.20
12481;DHT22;6305;48.398;11.762;2023-06-10T11:56:24;35.40;38.90
12481;DHT22;6305;48.398;11.762;2023-06-10T11:58:55;36.90;37.50
12481;DHT22;6305;48.398;11.762;2023-06-10T12:01:25;38.30;34.40
12481;DHT22;6305;48.398;11.762;2023-06-10T12:04:00;37.90;33.70
12481;DHT22;6305;48.398;11.762;2023-06-10T12:06:27;36.90;34.60
12481;DHT22;6305;48.398;11.762;2023-06-10T12:08:54;35.70;36.20
12481;DHT22;6305;48.398;11.762;2023-06-10T12:11:22;34.40;37.90
12481;DHT22;6305;48.398;11.762;2023-06-10T12:13:50;32.90;40.20
12481;DHT22;6305;48.398;11.762;2023-06-10T12:16:17;31.50;42.30
12481;DHT22;6305;48.398;11.762;2023-06-10T12:18:47;30.10;44.50
12481;DHT22;6305;48.398;11.762;2023-06-10T12:21:19;28.90;46.80
12481;DHT22;6305;48.398;11.762;2023-06-10T12:24:03;28.00;49.30
12481;DHT22;6305;48.398;11.762;2023-06-10T12:26:39;27.20;51.90
12481;DHT22;6305;48.398;11.762;2023-06-10T12:29:16;26.70;53.80
12481;DHT22;6305;48.398;11.762;2023-06-10T12:32:05;26.50;54.60
12481;DHT22;6305;48.398;11.762;2023-06-10T12:34:36;26.60;55.50
12481;DHT22;6305;48.398;11.762;2023-06-10T12:37:04;27.00;55.40
12481;DHT22;6305;48.398;11.762;2023-06-10T12:39:33;27.30;55.00
12481;DHT22;6305;48.398;11.762;2023-06-10T12:42:00;27.80;54.60
12481;DHT22;6305;48.398;11.762;2023-06-10T12:44:32;28.20;53.80
12481;DHT22;6305;48.398;11.762;2023-06-10T12:47:00;28.50;53.50
12481;DHT22;6305;48.398;11.762;2023-06-10T12:49:27;28.70;53.20
12481;DHT22;6305;48.398;11.762;2023-06-10T12:51:56;28.90;52.90
12481;DHT22;6305;48.398;11.762;2023-06-10T12:54:23;29.90;53.10
12481;DHT22;6305;48.398;11.762;2023-06-10T12:56:51;31.90;50.20
12481;DHT22;6305;48.398;11.762;2023-06-10T12:59:18;33.50;45.70
12481;DHT22;6305;48.398;11.762;2023-06-10T13:01:50;34.90;43.10
12481;DHT22;6305;48.398;11.762;2023-06-10T13:04:17;35.80;40.50
12481;DHT22;6305;48.398;11.762;2023-06-10T13:06:45;37.10;39.60
12481;DHT22;6305;48.398;11.762;2023-06-10T13:09:14;38.30;36.10
12481;DHT22;6305;48.398;11.762;2023-06-10T13:11:41;38.60;35.50
12481;DHT22;6305;48.398;11.762;2023-06-10T13:14:09;39.60;34.50
12481;DHT22;6305;48.398;11.762;2023-06-10T13:16:36;39.70;32.60
12481;DHT22;6305;48.398;11.762;2023-06-10T13:19:05;39.50;32.80
12481;DHT22;6305;48.398;11.762;2023-06-10T13:21:32;39.20;31.50
12481;DHT22;6305;48.398;11.762;2023-06-10T13:24:00;38.60;31.90
12481;DHT22;6305;48.398;11.762;2023-06-10T13:26:28;37.70;32.60
12481;DHT22;6305;48.398;11.762;2023-06-10T13:28:55;36.90;33.60
12481;DHT22;6305;48.398;11.762;2023-06-10T13:31:22;36.40;34.20
12481;DHT22;6305;48.398;11.762;2023-06-10T13:33:49;35.70;35.40
12481;DHT22;6305;48.398;11.762;2023-06-10T13:36:16;34.90;36.10
12481;DHT22;6305;48.398;11.762;2023-06-10T13:38:42;34.10;36.90
12481;DHT22;6305;48.398;11.762;2023-06-10T13:41:11;34.50;38.30
12481;DHT22;6305;48.398;11.762;2023-06-10T13:43:39;35.30;37.70
12481;DHT22;6305;48.398;11.762;2023-06-10T13:46:06;36.10;36.30
12481;DHT22;6305;48.398;11.762;2023-06-10T13:48:33;36.80;35.00
12481;DHT22;6305;48.398;11.762;2023-06-10T13:51:00;37.30;33.10
12481;DHT22;6305;48.398;11.762;2023-06-10T13:53:27;37.50;33.20
12481;DHT22;6305;48.398;11.762;2023-06-10T13:55:54;38.00;32.80
12481;DHT22;6305;48.398;11.762;2023-06-10T13:58:21;38.50;33.10
12481;DHT22;6305;48.398;11.762;2023-06-10T14:00:50;39.00;32.20
12481;DHT22;6305;48.398;11.762;2023-06-10T14:03:17;39.30;30.50
12481;DHT22;6305;48.398;11.762;2023-06-10T14:05:44;39.60;30.40
12481;DHT22;6305;48.398;11.762;2023-06-10T14:08:11;39.90;30.00
12481;DHT22;6305;48.398;11.762;2023-06-10T14:10:39;40.40;30.00
12481;DHT22;6305;48.398;11.762;2023-06-10T14:13:05;40.70;30.00
12481;DHT22;6305;48.398;11.762;2023-06-10T14:15:32;41.30;29.80
12481;DHT22;6305;48.398;11.762;2023-06-10T14:18:01;40.80;29.70
12481;DHT22;6305;48.398;11.762;2023-06-10T14:20:28;39.20;30.90
12481;DHT22;6305;48.398;11.762;2023-06-10T14:22:57;37.40;32.40
12481;DHT22;6305;48.398;11.762;2023-06-10T14:25:24;36.50;33.50
12481;DHT22;6305;48.398;11.762;2023-06-10T14:27:52;36.90;33.50
12481;DHT22;6305;48.398;11.762;2023-06-10T14:30:19;37.70;32.50
12481;DHT22;6305;48.398;11.762;2023-06-10T14:32:46;38.30;32.20
12481;DHT22;6305;48.398;11.762;2023-06-10T14:35:15;38.90;30.80
12481;DHT22;6305;48.398;11.762;2023-06-10T14:37:42;38.70;29.10
12481;DHT22;6305;48.398;11.762;2023-06-10T14:40:09;38.10;29.80
12481;DHT22;6305;48.398;11.762;2023-06-10T14:42:36;37.50;31.00
12481;DHT22;6305;48.398;11.762;2023-06-10T14:45:05;36.80;32.00
12481;DHT22;6305;48.398;11.762;2023-06-10T14:47:32;36.20;33.50
12481;DHT22;6305;48.398;11.762;2023-06-10T14:49:59;35.70;34.50
12481;DHT22;6305;48.398;11.762;2023-06-10T14:52:27;35.50;34.80
12481;DHT22;6305;48.398;11.762;2023-06-10T14:54:54;35.20;36.20
12481;DHT22;6305;48.398;11.762;2023-06-10T14:57:24;34.70;37.60
12481;DHT22;6305;48.398;11.762;2023-06-10T14:59:55;33.80;38.70
12481;DHT22;6305;48.398;11.762;2023-06-10T15:02:22;33.10;39.50
12481;DHT22;6305;48.398;11.762;2023-06-10T15:04:49;32.70;40.10
12481;DHT22;6305;48.398;11.762;2023-06-10T15:07:16;32.40;40.60
12481;DHT22;6305;48.398;11.762;2023-06-10T15:09:45;31.90;40.90
12481;DHT22;6305;48.398;11.762;2023-06-10T15:12:12;31.40;41.60
12481;DHT22;6305;48.398;11.762;2023-06-10T15:14:40;31.00;42.20
12481;DHT22;6305;48.398;11.762;2023-06-10T15:17:07;30.50;42.80
12481;DHT22;6305;48.398;11.762;2023-06-10T15:19:34;30.20;43.50
12481;DHT22;6305;48.398;11.762;2023-06-10T15:22:02;29.90;44.80
12481;DHT22;6305;48.398;11.762;2023-06-10T15:24:29;29.60;45.10
12481;DHT22;6305;48.398;11.762;2023-06-10T15:26:58;29.40;45.60
12481;DHT22;6305;48.398;11.762;2023-06-10T15:29:30;29.20;46.10
12481;DHT22;6305;48.398;11.762;2023-06-10T15:32:01;29.40;46.50
12481;DHT22;6305;48.398;11.762;2023-06-10T15:34:28;29.50;46.00
12481;DHT22;6305;48.398;11.762;2023-06-10T15:36:55;29.60;45.80
12481;DHT22;6305;48.398;11.762;2023-06-10T15:39:21;29.50;45.70